Terminal Aerodrome Forecast
Issued by NWS

Current Version | Previous Version | Text Only | Print | Product List | Glossary On
Versions: 1 2 3 4 5 6 7 8 9 10 11 12 13 14 15 16 17 18 19 20 21 22 23 24 25 26 27 28 29 30 31 32 33
649
FTUS44 KSJT 221100
TAFSOA
TAF
KSOA 221133Z 2212/2312 10007KT 4SM BR OVC002
     FM221700 14010KT 6SM BR OVC007
     FM222100 16011KT P6SM OVC015
     FM230100 17012KT 5SM BR OVC007=

USA.gov is the U.S. government's official web portal to all federal, state and local government web resources and services.